sensor_id;sensor_type;location;lat;lon;timestamp;P1;durP1;ratioP1;P2;durP2;ratioP2
16579;SDS011;8402;51.466;6.806;2024-01-16T00:00:00;10.33;;;3.53;;
16579;SDS011;8402;51.466;6.806;2024-01-16T00:02:46;12.00;;;3.60;;
16579;SDS011;8402;51.466;6.806;2024-01-16T00:05:17;15.03;;;4.20;;
16579;SDS011;8402;51.466;6.806;2024-01-16T00:07:47;7.83;;;3.67;;
16579;SDS011;8402;51.466;6.806;2024-01-16T00:10:17;8.47;;;3.10;;
16579;SDS011;8402;51.466;6.806;2024-01-16T00:12:47;8.77;;;3.70;;
16579;SDS011;8402;51.466;6.806;2024-01-16T00:15:23;8.03;;;3.33;;
16579;SDS011;8402;51.466;6.806;2024-01-16T00:17:58;7.00;;;3.50;;
16579;SDS011;8402;51.466;6.806;2024-01-16T00:20:29;10.10;;;3.10;;
16579;SDS011;8402;51.466;6.806;2024-01-16T00:23:00;9.13;;;3.50;;
16579;SDS011;8402;51.466;6.806;2024-01-16T00:25:42;13.30;;;3.80;;
16579;SDS011;8402;51.466;6.806;2024-01-16T00:28:44;3.50;;;1.60;;
16579;SDS011;8402;51.466;6.806;2024-01-16T00:31:14;7.33;;;2.90;;
16579;SDS011;8402;51.466;6.806;2024-01-16T00:33:48;9.73;;;3.07;;
16579;SDS011;8402;51.466;6.806;2024-01-16T00:36:22;6.03;;;2.30;;
16579;SDS011;8402;51.466;6.806;2024-01-16T00:38:56;13.40;;;3.17;;
16579;SDS011;8402;51.466;6.806;2024-01-16T00:41:31;10.50;;;3.53;;
16579;SDS011;8402;51.466;6.806;2024-01-16T00:44:03;9.23;;;2.67;;
16579;SDS011;8402;51.466;6.806;2024-01-16T00:46:56;10.23;;;2.93;;
16579;SDS011;8402;51.466;6.806;2024-01-16T00:49:37;8.00;;;3.00;;
16579;SDS011;8402;51.466;6.806;2024-01-16T00:52:10;5.77;;;2.70;;
16579;SDS011;8402;51.466;6.806;2024-01-16T00:54:43;4.27;;;1.90;;
16579;SDS011;8402;51.466;6.806;2024-01-16T00:57:15;5.60;;;2.33;;
16579;SDS011;8402;51.466;6.806;2024-01-16T00:59:48;7.27;;;2.50;;
16579;SDS011;8402;51.466;6.806;2024-01-16T01:02:20;4.33;;;2.63;;
16579;SDS011;8402;51.466;6.806;2024-01-16T01:04:55;7.77;;;2.80;;
16579;SDS011;8402;51.466;6.806;2024-01-16T01:07:37;9.70;;;2.77;;
16579;SDS011;8402;51.466;6.806;2024-01-16T01:10:08;10.10;;;2.20;;
16579;SDS011;8402;51.466;6.806;2024-01-16T01:13:07;6.70;;;1.80;;
16579;SDS011;8402;51.466;6.806;2024-01-16T01:15:41;4.13;;;1.83;;
16579;SDS011;8402;51.466;6.806;2024-01-16T01:18:11;7.03;;;2.63;;
16579;SDS011;8402;51.466;6.806;2024-01-16T01:20:48;6.67;;;2.87;;
16579;SDS011;8402;51.466;6.806;2024-01-16T01:23:21;6.40;;;2.30;;
16579;SDS011;8402;51.466;6.806;2024-01-16T01:25:59;10.30;;;3.10;;
16579;SDS011;8402;51.466;6.806;2024-01-16T01:28:41;6.93;;;2.67;;
16579;SDS011;8402;51.466;6.806;2024-01-16T01:31:12;4.40;;;2.53;;
16579;SDS011;8402;51.466;6.806;2024-01-16T01:33:42;7.03;;;3.23;;
16579;SDS011;8402;51.466;6.806;2024-01-16T01:36:15;9.53;;;3.30;;
16579;SDS011;8402;51.466;6.806;2024-01-16T01:38:58;9.37;;;2.97;;
16579;SDS011;8402;51.466;6.806;2024-01-16T01:41:34;3.43;;;2.13;;
16579;SDS011;8402;51.466;6.806;2024-01-16T01:44:20;5.13;;;3.10;;
16579;SDS011;8402;51.466;6.806;2024-01-16T01:46:53;8.57;;;3.60;;
16579;SDS011;8402;51.466;6.806;2024-01-16T01:49:25;8.80;;;2.67;;
16579;SDS011;8402;51.466;6.806;2024-01-16T01:52:01;8.87;;;3.20;;
16579;SDS011;8402;51.466;6.806;2024-01-16T01:54:48;8.87;;;3.27;;
16579;SDS011;8402;51.466;6.806;2024-01-16T01:57:21;9.27;;;3.63;;
16579;SDS011;8402;51.466;6.806;2024-01-16T02:00:02;10.10;;;3.73;;
16579;SDS011;8402;51.466;6.806;2024-01-16T02:02:33;5.53;;;2.70;;
16579;SDS011;8402;51.466;6.806;2024-01-16T02:05:06;5.60;;;3.17;;
16579;SDS011;8402;51.466;6.806;2024-01-16T02:07:41;6.53;;;3.33;;
16579;SDS011;8402;51.466;6.806;2024-01-16T02:10:12;7.87;;;2.90;;
16579;SDS011;8402;51.466;6.806;2024-01-16T02:13:01;6.53;;;3.20;;
16579;SDS011;8402;51.466;6.806;2024-01-16T02:15:32;4.43;;;2.53;;
16579;SDS011;8402;51.466;6.806;2024-01-16T02:18:02;10.37;;;2.93;;
16579;SDS011;8402;51.466;6.806;2024-01-16T02:20:32;7.30;;;3.37;;
16579;SDS011;8402;51.466;6.806;2024-01-16T02:25:59;8.10;;;3.30;;
16579;SDS011;8402;51.466;6.806;2024-01-16T02:28:30;6.70;;;3.37;;
16579;SDS011;8402;51.466;6.806;2024-01-16T02:31:02;7.17;;;3.03;;
16579;SDS011;8402;51.466;6.806;2024-01-16T02:33:35;8.23;;;3.93;;
16579;SDS011;8402;51.466;6.806;2024-01-16T02:36:05;8.23;;;3.47;;
16579;SDS011;8402;51.466;6.806;2024-01-16T02:38:51;6.87;;;3.60;;
16579;SDS011;8402;51.466;6.806;2024-01-16T02:41:21;10.33;;;3.90;;
16579;SDS011;8402;51.466;6.806;2024-01-16T02:43:55;13.67;;;4.00;;
16579;SDS011;8402;51.466;6.806;2024-01-16T02:46:34;10.50;;;4.33;;
16579;SDS011;8402;51.466;6.806;2024-01-16T02:49:06;10.03;;;3.83;;
16579;SDS011;8402;51.466;6.806;2024-01-16T02:51:42;10.00;;;4.10;;
16579;SDS011;8402;51.466;6.806;2024-01-16T02:54:17;9.57;;;5.00;;
16579;SDS011;8402;51.466;6.806;2024-01-16T02:57:06;10.70;;;4.67;;
16579;SDS011;8402;51.466;6.806;2024-01-16T02:59:39;12.63;;;4.80;;
16579;SDS011;8402;51.466;6.806;2024-01-16T03:02:18;12.27;;;5.33;;
16579;SDS011;8402;51.466;6.806;2024-01-16T03:04:49;14.07;;;5.50;;
16579;SDS011;8402;51.466;6.806;2024-01-16T03:07:19;5.90;;;3.13;;
16579;SDS011;8402;51.466;6.806;2024-01-16T03:09:52;11.97;;;5.30;;
16579;SDS011;8402;51.466;6.806;2024-01-16T03:12:22;13.53;;;5.77;;
16579;SDS011;8402;51.466;6.806;2024-01-16T03:14:52;12.50;;;5.90;;
16579;SDS011;8402;51.466;6.806;2024-01-16T03:17:22;9.80;;;4.60;;
16579;SDS011;8402;51.466;6.806;2024-01-16T03:19:52;14.30;;;6.23;;
16579;SDS011;8402;51.466;6.806;2024-01-16T03:22:22;11.53;;;5.40;;
16579;SDS011;8402;51.466;6.806;2024-01-16T03:24:54;15.07;;;5.53;;
16579;SDS011;8402;51.466;6.806;2024-01-16T03:27:24;11.37;;;5.20;;
16579;SDS011;8402;51.466;6.806;2024-01-16T03:29:54;12.60;;;5.40;;
16579;SDS011;8402;51.466;6.806;2024-01-16T03:32:25;15.47;;;5.67;;
16579;SDS011;8402;51.466;6.806;2024-01-16T03:34:56;15.27;;;5.57;;
16579;SDS011;8402;51.466;6.806;2024-01-16T03:37:26;10.07;;;4.57;;
16579;SDS011;8402;51.466;6.806;2024-01-16T03:39:58;10.83;;;5.60;;
16579;SDS011;8402;51.466;6.806;2024-01-16T03:42:29;9.83;;;4.73;;
16579;SDS011;8402;51.466;6.806;2024-01-16T03:44:58;13.47;;;5.63;;
16579;SDS011;8402;51.466;6.806;2024-01-16T03:47:28;12.40;;;5.97;;
16579;SDS011;8402;51.466;6.806;2024-01-16T03:49:58;11.37;;;4.93;;
16579;SDS011;8402;51.466;6.806;2024-01-16T03:52:28;6.33;;;3.47;;
16579;SDS011;8402;51.466;6.806;2024-01-16T03:55:01;15.63;;;6.00;;
16579;SDS011;8402;51.466;6.806;2024-01-16T03:57:34;12.07;;;5.27;;
16579;SDS011;8402;51.466;6.806;2024-01-16T04:00:04;12.80;;;5.50;;
16579;SDS011;8402;51.466;6.806;2024-01-16T04:02:39;11.37;;;4.17;;
16579;SDS011;8402;51.466;6.806;2024-01-16T04:05:09;12.40;;;5.37;;
16579;SDS011;8402;51.466;6.806;2024-01-16T04:07:39;13.70;;;5.80;;
16579;SDS011;8402;51.466;6.806;2024-01-16T04:10:11;14.03;;;5.00;;
16579;SDS011;8402;51.466;6.806;2024-01-16T04:12:41;14.27;;;5.93;;
16579;SDS011;8402;51.466;6.806;2024-01-16T04:15:11;11.90;;;5.30;;
16579;SDS011;8402;51.466;6.806;2024-01-16T04:17:41;9.07;;;3.87;;
16579;SDS011;8402;51.466;6.806;2024-01-16T04:20:11;15.87;;;5.67;;
16579;SDS011;8402;51.466;6.806;2024-01-16T04:22:41;14.17;;;5.00;;
16579;SDS011;8402;51.466;6.806;2024-01-16T04:25:13;9.23;;;4.10;;
16579;SDS011;8402;51.466;6.806;2024-01-16T04:27:44;11.00;;;4.53;;
16579;SDS011;8402;51.466;6.806;2024-01-16T04:30:14;12.30;;;4.77;;
16579;SDS011;8402;51.466;6.806;2024-01-16T04:32:47;7.83;;;3.77;;
16579;SDS011;8402;51.466;6.806;2024-01-16T04:35:17;12.87;;;4.90;;
16579;SDS011;8402;51.466;6.806;2024-01-16T04:37:48;9.90;;;4.27;;
16579;SDS011;8402;51.466;6.806;2024-01-16T04:40:21;11.13;;;4.73;;
16579;SDS011;8402;51.466;6.806;2024-01-16T04:42:51;12.27;;;4.20;;
16579;SDS011;8402;51.466;6.806;2024-01-16T04:45:21;12.17;;;4.20;;
16579;SDS011;8402;51.466;6.806;2024-01-16T04:47:51;8.37;;;3.60;;
16579;SDS011;8402;51.466;6.806;2024-01-16T04:50:21;8.23;;;3.80;;
16579;SDS011;8402;51.466;6.806;2024-01-16T04:52:58;7.20;;;2.80;;
16579;SDS011;8402;51.466;6.806;2024-01-16T04:55:31;10.80;;;3.23;;
16579;SDS011;8402;51.466;6.806;2024-01-16T04:58:01;6.47;;;2.73;;
16579;SDS011;8402;51.466;6.806;2024-01-16T05:00:32;9.27;;;3.00;;
16579;SDS011;8402;51.466;6.806;2024-01-16T05:03:03;5.93;;;3.13;;
16579;SDS011;8402;51.466;6.806;2024-01-16T05:05:34;7.10;;;2.87;;
16579;SDS011;8402;51.466;6.806;2024-01-16T05:08:04;12.70;;;3.23;;
16579;SDS011;8402;51.466;6.806;2024-01-16T05:10:37;7.17;;;2.53;;
16579;SDS011;8402;51.466;6.806;2024-01-16T05:13:10;18.23;;;3.00;;
16579;SDS011;8402;51.466;6.806;2024-01-16T05:15:40;5.83;;;3.00;;
16579;SDS011;8402;51.466;6.806;2024-01-16T05:18:10;7.77;;;2.17;;
16579;SDS011;8402;51.466;6.806;2024-01-16T05:20:40;6.33;;;2.80;;
16579;SDS011;8402;51.466;6.806;2024-01-16T05:23:10;5.00;;;2.07;;
16579;SDS011;8402;51.466;6.806;2024-01-16T05:25:42;10.07;;;3.10;;
16579;SDS011;8402;51.466;6.806;2024-01-16T05:28:12;4.07;;;2.40;;
16579;SDS011;8402;51.466;6.806;2024-01-16T05:30:42;7.63;;;2.70;;
16579;SDS011;8402;51.466;6.806;2024-01-16T05:33:12;4.47;;;2.60;;
16579;SDS011;8402;51.466;6.806;2024-01-16T05:35:42;5.17;;;3.00;;
16579;SDS011;8402;51.466;6.806;2024-01-16T05:38:12;7.40;;;3.30;;
16579;SDS011;8402;51.466;6.806;2024-01-16T05:40:45;7.17;;;2.70;;
16579;SDS011;8402;51.466;6.806;2024-01-16T05:43:15;10.30;;;3.80;;
16579;SDS011;8402;51.466;6.806;2024-01-16T05:45:45;11.13;;;3.83;;
16579;SDS011;8402;51.466;6.806;2024-01-16T05:48:15;12.23;;;4.23;;
16579;SDS011;8402;51.466;6.806;2024-01-16T05:50:46;16.10;;;4.87;;
16579;SDS011;8402;51.466;6.806;2024-01-16T05:53:16;11.43;;;5.00;;
16579;SDS011;8402;51.466;6.806;2024-01-16T05:55:48;12.63;;;5.00;;
16579;SDS011;8402;51.466;6.806;2024-01-16T05:58:20;15.07;;;6.23;;
16579;SDS011;8402;51.466;6.806;2024-01-16T06:00:50;13.30;;;6.27;;
16579;SDS011;8402;51.466;6.806;2024-01-16T06:03:20;17.23;;;6.43;;
16579;SDS011;8402;51.466;6.806;2024-01-16T06:05:50;15.83;;;6.77;;
16579;SDS011;8402;51.466;6.806;2024-01-16T06:08:20;18.77;;;7.20;;
16579;SDS011;8402;51.466;6.806;2024-01-16T06:10:53;19.97;;;7.83;;
16579;SDS011;8402;51.466;6.806;2024-01-16T06:13:23;18.37;;;8.10;;
16579;SDS011;8402;51.466;6.806;2024-01-16T06:15:53;17.90;;;8.50;;
16579;SDS011;8402;51.466;6.806;2024-01-16T06:18:23;17.00;;;5.97;;
16579;SDS011;8402;51.466;6.806;2024-01-16T06:20:53;18.33;;;7.90;;
16579;SDS011;8402;51.466;6.806;2024-01-16T06:23:23;27.20;;;8.30;;
16579;SDS011;8402;51.466;6.806;2024-01-16T06:25:55;10.33;;;4.37;;
16579;SDS011;8402;51.466;6.806;2024-01-16T06:28:25;22.70;;;7.60;;
16579;SDS011;8402;51.466;6.806;2024-01-16T06:30:55;16.67;;;5.33;;
16579;SDS011;8402;51.466;6.806;2024-01-16T06:33:25;17.57;;;6.73;;
16579;SDS011;8402;51.466;6.806;2024-01-16T06:35:55;16.60;;;6.07;;
16579;SDS011;8402;51.466;6.806;2024-01-16T06:38:26;16.77;;;6.43;;
16579;SDS011;8402;51.466;6.806;2024-01-16T06:40:58;19.77;;;7.27;;
16579;SDS011;8402;51.466;6.806;2024-01-16T06:43:28;14.10;;;5.90;;
16579;SDS011;8402;51.466;6.806;2024-01-16T06:45:58;16.87;;;6.33;;
16579;SDS011;8402;51.466;6.806;2024-01-16T06:48:28;15.90;;;6.47;;
16579;SDS011;8402;51.466;6.806;2024-01-16T06:50:58;13.33;;;6.90;;
16579;SDS011;8402;51.466;6.806;2024-01-16T06:53:28;16.30;;;6.23;;
16579;SDS011;8402;51.466;6.806;2024-01-16T06:56:01;19.00;;;6.67;;
16579;SDS011;8402;51.466;6.806;2024-01-16T06:58:31;18.13;;;6.90;;
16579;SDS011;8402;51.466;6.806;2024-01-16T07:01:01;17.23;;;6.83;;
16579;SDS011;8402;51.466;6.806;2024-01-16T07:03:32;19.90;;;5.93;;
16579;SDS011;8402;51.466;6.806;2024-01-16T07:06:02;15.27;;;6.27;;
16579;SDS011;8402;51.466;6.806;2024-01-16T07:08:32;11.73;;;4.87;;
16579;SDS011;8402;51.466;6.806;2024-01-16T07:11:05;14.23;;;6.07;;
16579;SDS011;8402;51.466;6.806;2024-01-16T07:13:39;8.60;;;4.83;;
16579;SDS011;8402;51.466;6.806;2024-01-16T07:16:09;19.40;;;6.80;;
16579;SDS011;8402;51.466;6.806;2024-01-16T07:18:41;12.27;;;5.83;;
16579;SDS011;8402;51.466;6.806;2024-01-16T07:21:17;14.67;;;5.60;;
16579;SDS011;8402;51.466;6.806;2024-01-16T07:23:47;15.17;;;4.93;;
16579;SDS011;8402;51.466;6.806;2024-01-16T07:26:20;10.87;;;4.20;;
16579;SDS011;8402;51.466;6.806;2024-01-16T07:28:51;9.47;;;4.57;;
16579;SDS011;8402;51.466;6.806;2024-01-16T07:31:21;14.57;;;5.73;;
16579;SDS011;8402;51.466;6.806;2024-01-16T07:33:51;13.37;;;4.07;;
16579;SDS011;8402;51.466;6.806;2024-01-16T07:36:22;13.07;;;4.27;;
16579;SDS011;8402;51.466;6.806;2024-01-16T07:38:52;16.30;;;5.37;;
16579;SDS011;8402;51.466;6.806;2024-01-16T07:41:24;12.40;;;4.73;;
16579;SDS011;8402;51.466;6.806;2024-01-16T07:43:54;11.57;;;3.80;;
16579;SDS011;8402;51.466;6.806;2024-01-16T07:46:24;11.27;;;4.37;;
16579;SDS011;8402;51.466;6.806;2024-01-16T07:48:54;14.83;;;3.67;;
16579;SDS011;8402;51.466;6.806;2024-01-16T07:51:25;10.10;;;3.23;;
16579;SDS011;8402;51.466;6.806;2024-01-16T07:54:04;9.73;;;3.67;;
16579;SDS011;8402;51.466;6.806;2024-01-16T07:56:37;9.77;;;3.10;;
16579;SDS011;8402;51.466;6.806;2024-01-16T07:59:07;14.93;;;4.03;;
16579;SDS011;8402;51.466;6.806;2024-01-16T08:01:37;12.33;;;1.77;;
16579;SDS011;8402;51.466;6.806;2024-01-16T08:04:07;8.30;;;3.50;;
16579;SDS011;8402;51.466;6.806;2024-01-16T08:06:37;8.90;;;3.63;;
16579;SDS011;8402;51.466;6.806;2024-01-16T08:09:07;8.80;;;3.03;;
16579;SDS011;8402;51.466;6.806;2024-01-16T08:11:41;9.40;;;3.13;;
16579;SDS011;8402;51.466;6.806;2024-01-16T08:14:11;10.93;;;3.90;;
16579;SDS011;8402;51.466;6.806;2024-01-16T08:16:41;13.70;;;2.47;;
16579;SDS011;8402;51.466;6.806;2024-01-16T08:19:11;10.20;;;3.40;;
16579;SDS011;8402;51.466;6.806;2024-01-16T08:21:42;11.37;;;2.77;;
16579;SDS011;8402;51.466;6.806;2024-01-16T08:24:12;9.60;;;2.67;;
16579;SDS011;8402;51.466;6.806;2024-01-16T08:26:45;9.80;;;2.20;;
16579;SDS011;8402;51.466;6.806;2024-01-16T08:29:15;8.73;;;2.70;;
16579;SDS011;8402;51.466;6.806;2024-01-16T08:31:45;21.80;;;3.73;;
16579;SDS011;8402;51.466;6.806;2024-01-16T08:34:15;14.87;;;3.23;;
16579;SDS011;8402;51.466;6.806;2024-01-16T08:36:45;10.83;;;2.83;;
16579;SDS011;8402;51.466;6.806;2024-01-16T08:39:15;9.63;;;2.63;;
16579;SDS011;8402;51.466;6.806;2024-01-16T08:41:48;12.27;;;2.50;;
16579;SDS011;8402;51.466;6.806;2024-01-16T08:44:18;7.10;;;2.47;;
16579;SDS011;8402;51.466;6.806;2024-01-16T08:46:49;7.97;;;2.20;;
16579;SDS011;8402;51.466;6.806;2024-01-16T08:49:19;9.37;;;2.80;;
16579;SDS011;8402;51.466;6.806;2024-01-16T08:51:48;8.33;;;2.53;;
16579;SDS011;8402;51.466;6.806;2024-01-16T08:54:18;12.60;;;2.77;;
16579;SDS011;8402;51.466;6.806;2024-01-16T08:56:53;9.33;;;2.47;;
16579;SDS011;8402;51.466;6.806;2024-01-16T08:59:23;6.07;;;2.80;;
16579;SDS011;8402;51.466;6.806;2024-01-16T09:01:55;11.83;;;3.43;;
16579;SDS011;8402;51.466;6.806;2024-01-16T09:04:25;10.03;;;3.20;;
16579;SDS011;8402;51.466;6.806;2024-01-16T09:06:59;14.00;;;2.93;;
16579;SDS011;8402;51.466;6.806;2024-01-16T09:09:42;11.37;;;3.13;;
16579;SDS011;8402;51.466;6.806;2024-01-16T09:12:24;13.07;;;2.57;;
16579;SDS011;8402;51.466;6.806;2024-01-16T09:15:01;11.93;;;2.70;;
16579;SDS011;8402;51.466;6.806;2024-01-16T09:17:51;7.57;;;2.60;;
16579;SDS011;8402;51.466;6.806;2024-01-16T09:20:29;12.37;;;3.37;;
16579;SDS011;8402;51.466;6.806;2024-01-16T09:23:11;4.63;;;2.37;;
16579;SDS011;8402;51.466;6.806;2024-01-16T09:25:44;8.70;;;2.40;;
16579;SDS011;8402;51.466;6.806;2024-01-16T09:28:20;9.53;;;2.97;;
16579;SDS011;8402;51.466;6.806;2024-01-16T09:30:56;6.60;;;2.30;;
16579;SDS011;8402;51.466;6.806;2024-01-16T09:33:35;11.50;;;3.20;;
16579;SDS011;8402;51.466;6.806;2024-01-16T09:36:10;7.57;;;2.57;;
16579;SDS011;8402;51.466;6.806;2024-01-16T09:38:42;8.70;;;2.97;;
16579;SDS011;8402;51.466;6.806;2024-01-16T09:41:21;7.30;;;2.80;;
16579;SDS011;8402;51.466;6.806;2024-01-16T09:43:56;8.47;;;3.00;;
16579;SDS011;8402;51.466;6.806;2024-01-16T09:46:26;10.33;;;3.00;;
16579;SDS011;8402;51.466;6.806;2024-01-16T09:48:56;7.47;;;2.93;;
16579;SDS011;8402;51.466;6.806;2024-01-16T09:51:29;16.43;;;3.40;;
16579;SDS011;8402;51.466;6.806;2024-01-16T09:54:00;9.93;;;2.83;;
16579;SDS011;8402;51.466;6.806;2024-01-16T09:56:41;13.40;;;3.70;;
16579;SDS011;8402;51.466;6.806;2024-01-16T09:59:23;12.10;;;3.67;;
16579;SDS011;8402;51.466;6.806;2024-01-16T10:01:54;13.07;;;3.50;;
16579;SDS011;8402;51.466;6.806;2024-01-16T10:04:29;11.30;;;3.67;;
16579;SDS011;8402;51.466;6.806;2024-01-16T10:07:09;9.60;;;3.60;;
16579;SDS011;8402;51.466;6.806;2024-01-16T10:09:45;10.53;;;2.93;;
16579;SDS011;8402;51.466;6.806;2024-01-16T10:12:15;6.97;;;2.90;;
16579;SDS011;8402;51.466;6.806;2024-01-16T10:14:48;11.20;;;3.10;;
16579;SDS011;8402;51.466;6.806;2024-01-16T10:17:35;9.40;;;3.30;;
16579;SDS011;8402;51.466;6.806;2024-01-16T10:20:11;9.73;;;3.60;;
16579;SDS011;8402;51.466;6.806;2024-01-16T10:22:54;12.93;;;3.37;;
16579;SDS011;8402;51.466;6.806;2024-01-16T10:25:32;12.10;;;2.67;;
16579;SDS011;8402;51.466;6.806;2024-01-16T10:28:04;10.50;;;2.87;;
16579;SDS011;8402;51.466;6.806;2024-01-16T10:30:42;4.50;;;2.63;;
16579;SDS011;8402;51.466;6.806;2024-01-16T10:33:25;12.13;;;3.87;;
16579;SDS011;8402;51.466;6.806;2024-01-16T10:36:14;16.53;;;3.40;;
16579;SDS011;8402;51.466;6.806;2024-01-16T10:38:50;13.53;;;3.50;;
16579;SDS011;8402;51.466;6.806;2024-01-16T10:41:24;10.03;;;3.30;;
16579;SDS011;8402;51.466;6.806;2024-01-16T10:44:03;9.60;;;3.03;;
16579;SDS011;8402;51.466;6.806;2024-01-16T10:46:39;14.40;;;3.87;;
16579;SDS011;8402;51.466;6.806;2024-01-16T10:49:12;6.67;;;2.47;;
16579;SDS011;8402;51.466;6.806;2024-01-16T10:52:08;10.63;;;3.23;;
16579;SDS011;8402;51.466;6.806;2024-01-16T10:54:43;12.53;;;3.77;;
16579;SDS011;8402;51.466;6.806;2024-01-16T10:57:25;9.37;;;3.80;;
16579;SDS011;8402;51.466;6.806;2024-01-16T11:00:01;11.80;;;3.93;;
16579;SDS011;8402;51.466;6.806;2024-01-16T11:02:38;12.47;;;4.10;;
16579;SDS011;8402;51.466;6.806;2024-01-16T11:05:13;8.70;;;3.00;;
16579;SDS011;8402;51.466;6.806;2024-01-16T11:07:46;11.23;;;3.90;;
16579;SDS011;8402;51.466;6.806;2024-01-16T11:10:27;6.77;;;2.87;;
16579;SDS011;8402;51.466;6.806;2024-01-16T11:12:59;14.30;;;3.67;;
16579;SDS011;8402;51.466;6.806;2024-01-16T11:15:33;12.07;;;3.77;;
16579;SDS011;8402;51.466;6.806;2024-01-16T11:18:10;14.60;;;3.97;;
16579;SDS011;8402;51.466;6.806;2024-01-16T11:20:42;9.63;;;2.90;;
16579;SDS011;8402;51.466;6.806;2024-01-16T11:23:31;11.27;;;3.17;;
16579;SDS011;8402;51.466;6.806;2024-01-16T11:29:01;7.83;;;3.63;;
16579;SDS011;8402;51.466;6.806;2024-01-16T11:32:09;8.63;;;2.20;;
16579;SDS011;8402;51.466;6.806;2024-01-16T11:37:46;10.20;;;4.17;;
16579;SDS011;8402;51.466;6.806;2024-01-16T11:40:24;10.93;;;2.97;;
16579;SDS011;8402;51.466;6.806;2024-01-16T11:42:58;7.83;;;3.03;;
16579;SDS011;8402;51.466;6.806;2024-01-16T11:46:01;10.93;;;3.77;;
16579;SDS011;8402;51.466;6.806;2024-01-16T11:48:35;9.70;;;3.17;;
16579;SDS011;8402;51.466;6.806;2024-01-16T11:53:55;10.23;;;3.40;;
16579;SDS011;8402;51.466;6.806;2024-01-16T11:59:41;12.30;;;3.47;;
16579;SDS011;8402;51.466;6.806;2024-01-16T12:02:29;15.20;;;4.87;;
16579;SDS011;8402;51.466;6.806;2024-01-16T12:05:07;11.83;;;4.03;;
16579;SDS011;8402;51.466;6.806;2024-01-16T12:07:50;12.77;;;3.43;;
16579;SDS011;8402;51.466;6.806;2024-01-16T12:10:22;11.70;;;4.13;;
16579;SDS011;8402;51.466;6.806;2024-01-16T12:12:56;8.53;;;3.63;;
16579;SDS011;8402;51.466;6.806;2024-01-16T12:15:34;9.30;;;2.10;;
16579;SDS011;8402;51.466;6.806;2024-01-16T12:18:04;7.60;;;3.50;;
16579;SDS011;8402;51.466;6.806;2024-01-16T12:20:48;12.13;;;3.90;;
16579;SDS011;8402;51.466;6.806;2024-01-16T12:23:21;5.87;;;3.17;;
16579;SDS011;8402;51.466;6.806;2024-01-16T12:25:53;9.87;;;3.80;;
16579;SDS011;8402;51.466;6.806;2024-01-16T12:28:29;4.37;;;2.17;;
16579;SDS011;8402;51.466;6.806;2024-01-16T12:30:59;8.90;;;3.27;;
16579;SDS011;8402;51.466;6.806;2024-01-16T12:33:30;14.67;;;3.80;;
16579;SDS011;8402;51.466;6.806;2024-01-16T12:36:00;10.33;;;4.20;;
16579;SDS011;8402;51.466;6.806;2024-01-16T12:38:53;5.70;;;3.33;;
16579;SDS011;8402;51.466;6.806;2024-01-16T12:41:27;10.23;;;3.50;;
16579;SDS011;8402;51.466;6.806;2024-01-16T12:44:08;3.37;;;1.93;;
16579;SDS011;8402;51.466;6.806;2024-01-16T12:46:49;14.77;;;4.10;;
16579;SDS011;8402;51.466;6.806;2024-01-16T12:49:24;5.73;;;3.23;;
16579;SDS011;8402;51.466;6.806;2024-01-16T12:55:01;12.13;;;4.10;;
16579;SDS011;8402;51.466;6.806;2024-01-16T12:57:31;15.93;;;4.00;;
16579;SDS011;8402;51.466;6.806;2024-01-16T13:00:15;11.70;;;4.13;;
16579;SDS011;8402;51.466;6.806;2024-01-16T13:02:51;13.53;;;4.37;;
16579;SDS011;8402;51.466;6.806;2024-01-16T13:05:30;10.43;;;4.30;;
16579;SDS011;8402;51.466;6.806;2024-01-16T13:08:17;8.50;;;3.60;;
16579;SDS011;8402;51.466;6.806;2024-01-16T13:13:41;6.70;;;3.03;;
16579;SDS011;8402;51.466;6.806;2024-01-16T13:16:11;8.37;;;3.90;;
16579;SDS011;8402;51.466;6.806;2024-01-16T13:18:44;10.20;;;3.97;;
16579;SDS011;8402;51.466;6.806;2024-01-16T13:21:23;8.87;;;4.27;;
16579;SDS011;8402;51.466;6.806;2024-01-16T13:23:56;17.20;;;4.73;;
16579;SDS011;8402;51.466;6.806;2024-01-16T13:26:28;8.00;;;3.73;;
16579;SDS011;8402;51.466;6.806;2024-01-16T13:28:59;13.17;;;4.10;;
16579;SDS011;8402;51.466;6.806;2024-01-16T13:31:30;9.00;;;3.90;;
16579;SDS011;8402;51.466;6.806;2024-01-16T13:34:01;14.03;;;3.50;;
16579;SDS011;8402;51.466;6.806;2024-01-16T13:36:34;8.40;;;3.77;;
16579;SDS011;8402;51.466;6.806;2024-01-16T13:39:24;11.17;;;4.13;;
16579;SDS011;8402;51.466;6.806;2024-01-16T13:42:08;9.70;;;4.57;;
16579;SDS011;8402;51.466;6.806;2024-01-16T13:44:38;12.63;;;5.00;;
16579;SDS011;8402;51.466;6.806;2024-01-16T13:47:13;10.53;;;4.43;;
16579;SDS011;8402;51.466;6.806;2024-01-16T13:49:52;15.53;;;4.90;;
16579;SDS011;8402;51.466;6.806;2024-01-16T13:52:24;15.23;;;6.17;;
16579;SDS011;8402;51.466;6.806;2024-01-16T13:54:54;7.80;;;3.83;;
16579;SDS011;8402;51.466;6.806;2024-01-16T13:57:31;12.50;;;4.07;;
16579;SDS011;8402;51.466;6.806;2024-01-16T14:00:03;7.33;;;3.40;;
16579;SDS011;8402;51.466;6.806;2024-01-16T14:02:43;11.90;;;4.37;;
16579;SDS011;8402;51.466;6.806;2024-01-16T14:05:15;13.90;;;4.57;;
16579;SDS011;8402;51.466;6.806;2024-01-16T14:07:52;14.77;;;4.23;;
16579;SDS011;8402;51.466;6.806;2024-01-16T14:10:28;15.93;;;3.87;;
16579;SDS011;8402;51.466;6.806;2024-01-16T14:13:03;8.30;;;3.83;;
16579;SDS011;8402;51.466;6.806;2024-01-16T14:15:34;13.43;;;4.03;;
16579;SDS011;8402;51.466;6.806;2024-01-16T14:18:05;4.53;;;2.23;;
16579;SDS011;8402;51.466;6.806;2024-01-16T14:20:37;8.77;;;3.90;;
16579;SDS011;8402;51.466;6.806;2024-01-16T14:23:07;10.53;;;3.27;;
16579;SDS011;8402;51.466;6.806;2024-01-16T14:25:39;13.90;;;3.90;;
16579;SDS011;8402;51.466;6.806;2024-01-16T14:28:17;11.03;;;3.97;;
16579;SDS011;8402;51.466;6.806;2024-01-16T14:30:55;8.80;;;3.57;;
16579;SDS011;8402;51.466;6.806;2024-01-16T14:33:25;8.60;;;3.17;;
16579;SDS011;8402;51.466;6.806;2024-01-16T14:35:57;7.27;;;3.57;;
16579;SDS011;8402;51.466;6.806;2024-01-16T14:38:33;19.77;;;4.47;;
16579;SDS011;8402;51.466;6.806;2024-01-16T14:41:06;7.83;;;2.43;;
16579;SDS011;8402;51.466;6.806;2024-01-16T14:43:38;9.90;;;3.67;;
16579;SDS011;8402;51.466;6.806;2024-01-16T14:46:08;5.80;;;2.57;;
16579;SDS011;8402;51.466;6.806;2024-01-16T14:48:43;6.37;;;3.20;;
16579;SDS011;8402;51.466;6.806;2024-01-16T14:51:14;7.17;;;3.33;;
16579;SDS011;8402;51.466;6.806;2024-01-16T14:53:51;8.93;;;3.30;;
16579;SDS011;8402;51.466;6.806;2024-01-16T14:56:22;15.43;;;4.30;;
16579;SDS011;8402;51.466;6.806;2024-01-16T14:58:57;8.23;;;3.70;;
16579;SDS011;8402;51.466;6.806;2024-01-16T15:01:30;10.37;;;3.70;;
16579;SDS011;8402;51.466;6.806;2024-01-16T15:04:03;7.57;;;3.10;;
16579;SDS011;8402;51.466;6.806;2024-01-16T15:06:34;6.70;;;3.20;;
16579;SDS011;8402;51.466;6.806;2024-01-16T15:09:04;9.23;;;4.00;;
16579;SDS011;8402;51.466;6.806;2024-01-16T15:11:37;11.23;;;4.03;;
16579;SDS011;8402;51.466;6.806;2024-01-16T15:14:10;10.03;;;3.83;;
16579;SDS011;8402;51.466;6.806;2024-01-16T15:16:40;10.03;;;2.93;;
16579;SDS011;8402;51.466;6.806;2024-01-16T15:19:10;8.87;;;3.67;;
16579;SDS011;8402;51.466;6.806;2024-01-16T15:21:41;9.17;;;4.00;;
16579;SDS011;8402;51.466;6.806;2024-01-16T15:24:12;10.60;;;3.93;;
16579;SDS011;8402;51.466;6.806;2024-01-16T15:26:55;12.57;;;3.33;;
16579;SDS011;8402;51.466;6.806;2024-01-16T15:29:29;6.43;;;3.10;;
16579;SDS011;8402;51.466;6.806;2024-01-16T15:32:02;7.50;;;3.33;;
16579;SDS011;8402;51.466;6.806;2024-01-16T15:34:36;9.50;;;3.90;;
16579;SDS011;8402;51.466;6.806;2024-01-16T15:37:07;18.60;;;6.90;;
16579;SDS011;8402;51.466;6.806;2024-01-16T15:39:37;9.07;;;4.13;;
16579;SDS011;8402;51.466;6.806;2024-01-16T15:42:07;8.23;;;3.73;;
16579;SDS011;8402;51.466;6.806;2024-01-16T15:44:51;8.93;;;4.03;;
16579;SDS011;8402;51.466;6.806;2024-01-16T15:47:22;15.87;;;4.63;;
16579;SDS011;8402;51.466;6.806;2024-01-16T15:49:54;9.50;;;4.10;;
16579;SDS011;8402;51.466;6.806;2024-01-16T15:52:24;11.33;;;4.40;;